Tropical Cyclones
[Index]
Main Index Home Page Stock Weather Photos Extreme Storms Discussion Storm News and Storm Chasing Reports Tropical Cyclones / Hurricanes / Typhoons Weather Data and Links Wild Fires / Bushfires Weather Observation Techniques Weather Picture Catalogue Tornado Pictures and Reports Stock Video Footage and DVDs for sale
Season 2004-2005 Tropical Cyclone RAYMOND Track Map
Season 2004-2005 Summaries: [BoM-AU] [JTWC-AU] [JTWC-SIO] [JTWC-SPAC] [JTWC-SH]
<<- Previous TC | BoM 2004-2005 Season | Next TC ->>

click for intensity scale information  Lat/long Grid: Show Hide

 Date Labels: Show Hide

Bureau of Meteorology Tropical Cyclone Data

Name: RAYMOND
Number: 881 / 200405_02

30 Dec 2004 00:00 UTC to 10 Jan 2005 00:00 UTC

    date/time    lat    long    hPa   cat  kts
2004-12-30 00   12.9   119.8   1004         20          
2004-12-30 06   13.3   120.2   1002         25          
2004-12-30 12   13.7   120.6   1002         25          
2004-12-30 18   14.0   120.9   1000         25          
2004-12-31 00   14.2   121.1    998         25          
2004-12-31 06   14.3   121.2    995    1    30          
2004-12-31 12   14.5   121.3    995    1    30          
2004-12-31 18   14.6   121.3    995    1    30          
2005-01-01 00   14.3   121.3    995    1    35          
2005-01-01 06   14.4   121.8    995    1    35          
2005-01-01 12   14.5   122.3    995    1    35          
2005-01-01 18   14.4   122.7    990    1    35          
2005-01-02 00   14.2   123.2    985    2    45          
2005-01-02 06   14.0   124.0    985    2    45          
2005-01-02 12   14.2   125.3    985    2    45          
2005-01-02 15   14.4   126.4    990    1    35          
2005-01-02 18   14.8   127.5    993    1    35          
2005-01-03 00   15.2   129.2   1000         30          
2005-01-03 06   16.5   130.2    999         20          
2005-01-03 12   17.3   130.7    999         15          
2005-01-03 18   17.5   132.0    999         15          
2005-01-04 00   17.8   134.2    999         15          
2005-01-04 06   18.4   134.5    997         15          
2005-01-04 12   18.5   136.5    999         15          
2005-01-04 18   18.0   137.0    999         15          
2005-01-05 00   17.5   137.5   1000         15          
2005-01-05 06   17.1   137.8    999         15          
2005-01-05 12   16.8   138.3    999         15          
2005-01-05 18   16.6   138.7   1000         15          
2005-01-06 00   16.2   139.1   1001         15          
2005-01-06 06   16.2   139.8   1001         15          
2005-01-06 12   16.8   140.1   1002         15          
2005-01-06 18   16.7   140.4   1002         15          
2005-01-07 00   16.3   140.6   1002         15          
2005-01-07 06   16.0   139.6   1001         15          
2005-01-07 12   15.9   139.4   1001         15          
2005-01-07 18   15.6   138.9   1001         15          
2005-01-08 00   15.5   138.9   1001         15          
2005-01-08 06   15.3   138.8   1001         15          
2005-01-08 12   15.2   138.7   1002         15          
2005-01-08 18   15.1   138.6   1002         15          
2005-01-09 00   14.6   138.2   1002         15          
2005-01-09 06   14.6   138.1   1002         15          
2005-01-09 12   14.6   137.6   1003         15          
2005-01-09 18   14.6   137.1   1003         15          
2005-01-10 00   14.7   136.6   1004         15          
Winds are 10-min average.

Tropical cyclone tracks developed by Michael Bath using data from the Bureau of Meteorology and Google Maps.


[Australian Severe Weather index] [Copyright Notice] [Email Contacts] [Search This Site] [Privacy Policy]
Document: tropical_cyclone_raymond.htm Updated: 29 June 2017